createdAt,value
2019-03-20T00:00:11.165Z,1024.82
2019-03-20T00:01:11.149Z,1024.82
2019-03-20T00:02:11.143Z,1024.82
2019-03-20T00:03:11.137Z,1024.85
2019-03-20T00:04:11.122Z,1024.89
2019-03-20T00:05:11.107Z,1024.86
2019-03-20T00:06:11.097Z,1024.85
2019-03-20T00:07:11.087Z,1024.87
2019-03-20T00:08:11.091Z,1024.85
2019-03-20T00:09:11.065Z,1024.81
2019-03-20T00:10:11.060Z,1024.87
2019-03-20T00:11:11.045Z,1024.92
2019-03-20T00:12:11.035Z,1024.92
2019-03-20T00:13:11.033Z,1024.91
2019-03-20T00:14:11.061Z,1024.92
2019-03-20T00:15:11.003Z,1024.91
2019-03-20T00:16:10.991Z,1024.90
2019-03-20T00:17:10.981Z,1024.84
2019-03-20T00:18:10.981Z,1024.84
2019-03-20T00:19:10.960Z,1024.89
2019-03-20T00:20:10.949Z,1024.91
2019-03-20T00:21:10.940Z,1024.90
2019-03-20T00:22:10.927Z,1024.90
2019-03-20T00:23:10.941Z,1024.88
2019-03-20T00:24:10.907Z,1024.92
2019-03-20T00:25:10.901Z,1024.91
2019-03-20T00:26:10.885Z,1024.91
2019-03-20T00:27:10.876Z,1024.96
2019-03-20T00:28:10.865Z,1024.95
2019-03-20T00:29:10.863Z,1024.91
2019-03-20T00:30:10.845Z,1024.91
2019-03-20T00:31:10.835Z,1024.91
2019-03-20T00:32:10.822Z,1024.91
2019-03-20T00:33:10.809Z,1024.97
2019-03-20T00:34:10.807Z,1024.95
2019-03-20T00:35:10.790Z,1024.98
2019-03-20T00:36:10.782Z,1024.99
2019-03-20T00:37:10.767Z,1025.00
2019-03-20T00:38:10.755Z,1024.93
2019-03-20T00:39:10.753Z,1024.95
2019-03-20T00:40:10.737Z,1024.93
2019-03-20T00:41:10.724Z,1024.94
2019-03-20T00:42:10.714Z,1024.98
2019-03-20T00:43:10.703Z,1024.96
2019-03-20T00:44:10.702Z,1024.98
2019-03-20T00:45:10.682Z,1024.97
2019-03-20T00:46:10.671Z,1024.95
2019-03-20T00:47:10.658Z,1024.93
2019-03-20T00:48:10.653Z,1024.96
2019-03-20T00:49:10.651Z,1024.94
2019-03-20T00:50:10.631Z,1024.93
2019-03-20T00:51:10.618Z,1024.98
2019-03-20T00:52:10.605Z,1024.95
2019-03-20T00:53:10.598Z,1024.95
2019-03-20T00:54:10.592Z,1024.95
2019-03-20T00:55:10.572Z,1024.95
2019-03-20T00:56:10.564Z,1024.91
2019-03-20T00:57:10.552Z,1024.97
2019-03-20T00:58:10.541Z,1025.04
2019-03-20T00:59:10.538Z,1025.00
2019-03-20T01:00:10.523Z,1025.04
2019-03-20T01:01:10.509Z,1025.00
2019-03-20T01:02:10.500Z,1024.98
2019-03-20T01:03:10.488Z,1025.04
2019-03-20T01:04:10.487Z,1025.03
2019-03-20T01:05:12.785Z,1025.04
2019-03-20T01:06:10.454Z,1025.05
2019-03-20T01:07:10.446Z,1025.06
2019-03-20T01:08:10.433Z,1025.02
2019-03-20T01:09:10.434Z,1025.01
2019-03-20T01:10:10.416Z,1025.03
2019-03-20T01:11:10.402Z,1025.02
2019-03-20T01:12:10.395Z,1024.99
2019-03-20T01:13:10.392Z,1025.05
2019-03-20T01:14:10.378Z,1025.06
2019-03-20T01:15:10.363Z,1025.11
2019-03-20T01:16:10.350Z,1025.05
2019-03-20T01:17:10.338Z,1025.05
2019-03-20T01:18:10.327Z,1025.07
2019-03-20T01:19:10.326Z,1025.11
2019-03-20T01:20:10.305Z,1025.09
2019-03-20T01:21:10.298Z,1025.07
2019-03-20T01:22:10.283Z,1025.08
2019-03-20T01:23:10.273Z,1025.11
2019-03-20T01:24:10.271Z,1025.06
2019-03-20T01:25:10.253Z,1025.06
2019-03-20T01:26:10.242Z,1025.05
2019-03-20T01:27:10.233Z,1025.07
2019-03-20T01:28:10.219Z,1025.06
2019-03-20T01:29:10.217Z,1025.02
2019-03-20T01:30:10.201Z,1024.98
2019-03-20T01:31:10.223Z,1025.05
2019-03-20T01:32:10.178Z,1025.04
2019-03-20T01:33:10.167Z,1025.05
2019-03-20T01:34:10.164Z,1025.05
2019-03-20T01:35:10.150Z,1025.07
2019-03-20T01:36:10.136Z,1025.10
2019-03-20T01:37:10.125Z,1025.08
2019-03-20T01:38:10.112Z,1025.07
2019-03-20T01:39:10.128Z,1025.07
2019-03-20T01:40:10.096Z,1025.07
2019-03-20T01:41:10.081Z,1025.06
2019-03-20T01:42:10.090Z,1025.06
2019-03-20T01:43:10.064Z,1025.06
2019-03-20T01:44:10.048Z,1025.02
2019-03-20T01:45:10.073Z,1025.02
2019-03-20T01:46:10.027Z,1025.04
2019-03-20T01:47:10.015Z,1025.04
2019-03-20T01:48:10.007Z,1025.01
2019-03-20T01:49:09.994Z,1025.02
2019-03-20T01:50:09.993Z,1025.02
2019-03-20T01:51:09.972Z,1025.03
2019-03-20T01:52:09.961Z,1025.06
2019-03-20T01:53:09.949Z,1025.09
2019-03-20T01:54:09.939Z,1025.07
2019-03-20T01:55:09.935Z,1025.04
2019-03-20T01:56:09.919Z,1025.11
2019-03-20T01:57:09.907Z,1025.11
2019-03-20T01:58:09.897Z,1025.11
2019-03-20T01:59:09.886Z,1025.13
2019-03-20T02:00:09.888Z,1025.16
2019-03-20T02:01:09.864Z,1025.09
2019-03-20T02:02:09.852Z,1025.13
2019-03-20T02:03:09.844Z,1025.07
2019-03-20T02:04:09.836Z,1025.04
2019-03-20T02:05:09.830Z,1025.09
2019-03-20T02:06:09.809Z,1025.06
2019-03-20T02:07:09.800Z,1025.07
2019-03-20T02:08:09.788Z,1025.09
2019-03-20T02:09:09.781Z,1025.11
2019-03-20T02:10:09.776Z,1025.17
2019-03-20T02:11:09.756Z,1025.18
2019-03-20T02:12:09.746Z,1025.20
2019-03-20T02:13:09.738Z,1025.13
2019-03-20T02:14:09.730Z,1025.18
2019-03-20T02:15:09.723Z,1025.13
2019-03-20T02:16:09.702Z,1025.15
2019-03-20T02:17:09.693Z,1025.14
2019-03-20T02:18:09.683Z,1025.15
2019-03-20T02:19:09.672Z,1025.20
2019-03-20T02:20:09.670Z,1025.23
2019-03-20T02:21:09.648Z,1025.22
2019-03-20T02:22:09.637Z,1025.26
2019-03-20T02:23:09.629Z,1025.27
2019-03-20T02:24:09.627Z,1025.28
2019-03-20T02:25:09.617Z,1025.27
2019-03-20T02:26:09.597Z,1025.28
2019-03-20T02:27:09.584Z,1025.27
2019-03-20T02:28:09.576Z,1025.27
2019-03-20T02:29:09.562Z,1025.27
2019-03-20T02:30:09.564Z,1025.26
2019-03-20T02:31:09.542Z,1025.31
2019-03-20T02:32:09.531Z,1025.30
2019-03-20T02:33:09.523Z,1025.35
2019-03-20T02:34:09.509Z,1025.27
2019-03-20T02:35:09.505Z,1025.27
2019-03-20T02:36:09.488Z,1025.29
2019-03-20T02:37:09.477Z,1025.21
2019-03-20T02:38:09.473Z,1025.21
2019-03-20T02:39:09.462Z,1025.21
2019-03-20T02:40:09.454Z,1025.19
2019-03-20T02:41:09.433Z,1025.25
2019-03-20T02:42:09.423Z,1025.22
2019-03-20T02:43:09.416Z,1025.23
2019-03-20T02:44:09.401Z,1025.15
2019-03-20T02:45:09.408Z,1025.19
2019-03-20T02:46:09.379Z,1025.19
2019-03-20T02:47:09.374Z,1025.16
2019-03-20T02:48:09.357Z,1025.13
2019-03-20T02:49:09.396Z,1025.20
2019-03-20T02:50:09.346Z,1025.16
2019-03-20T02:51:09.327Z,1025.18
2019-03-20T02:52:09.314Z,1025.19
2019-03-20T02:53:09.304Z,1025.20
2019-03-20T02:54:09.304Z,1025.18
2019-03-20T02:55:09.294Z,1025.22
2019-03-20T02:56:09.283Z,1025.22
2019-03-20T02:57:09.261Z,1025.23
2019-03-20T02:58:09.258Z,1025.29
2019-03-20T02:59:09.238Z,1025.26
2019-03-20T03:00:09.254Z,1025.29
2019-03-20T03:01:09.220Z,1025.32
2019-03-20T03:02:09.210Z,1025.35
2019-03-20T03:03:09.197Z,1025.33
2019-03-20T03:04:09.188Z,1025.37
2019-03-20T03:05:09.175Z,1025.41
2019-03-20T03:06:09.188Z,1025.33
2019-03-20T03:07:09.155Z,1025.38
2019-03-20T03:08:09.143Z,1025.41
2019-03-20T03:09:09.131Z,1025.43
2019-03-20T03:10:09.120Z,1025.39
2019-03-20T03:11:09.119Z,1025.39
2019-03-20T03:12:09.102Z,1025.36
2019-03-20T03:13:09.087Z,1025.38
2019-03-20T03:14:09.083Z,1025.36
2019-03-20T03:15:09.074Z,1025.38
2019-03-20T03:16:09.078Z,1025.38
2019-03-20T03:17:09.045Z,1025.41
2019-03-20T03:18:09.035Z,1025.38
2019-03-20T03:19:09.030Z,1025.41
2019-03-20T03:20:09.018Z,1025.40
2019-03-20T03:21:09.011Z,1025.45
2019-03-20T03:22:08.992Z,1025.43
2019-03-20T03:23:08.985Z,1025.42
2019-03-20T03:24:08.971Z,1025.44
2019-03-20T03:25:08.961Z,1025.47
2019-03-20T03:26:08.958Z,1025.47
2019-03-20T03:27:08.937Z,1025.44
2019-03-20T03:28:08.970Z,1025.47
2019-03-20T03:29:08.920Z,1025.42
2019-03-20T03:30:08.907Z,1025.45
2019-03-20T03:31:08.923Z,1025.46
2019-03-20T03:32:08.884Z,1025.43
2019-03-20T03:33:08.875Z,1025.43
2019-03-20T03:34:08.870Z,1025.40
2019-03-20T03:35:08.854Z,1025.43
2019-03-20T03:36:20.627Z,1025.38
2019-03-20T03:37:09.832Z,1025.41
2019-03-20T03:38:08.820Z,1025.43
2019-03-20T03:39:08.809Z,1025.42
2019-03-20T03:40:08.797Z,1025.44
2019-03-20T03:41:08.804Z,1025.43
2019-03-20T03:42:08.777Z,1025.41
2019-03-20T03:43:08.769Z,1025.44
2019-03-20T03:44:08.769Z,1025.47
2019-03-20T03:45:08.743Z,1025.38
2019-03-20T03:46:08.743Z,1025.47
2019-03-20T03:47:08.730Z,1025.44
2019-03-20T03:48:08.717Z,1025.47
2019-03-20T03:49:08.703Z,1025.45
2019-03-20T03:50:08.696Z,1025.49
2019-03-20T03:51:08.688Z,1025.49
2019-03-20T03:52:08.669Z,1025.51
2019-03-20T03:53:08.658Z,1025.55
2019-03-20T03:54:08.649Z,1025.47
2019-03-20T03:55:08.653Z,1025.54
2019-03-20T03:56:08.639Z,1025.53
2019-03-20T03:57:08.616Z,1025.52
2019-03-20T03:58:08.605Z,1025.55
2019-03-20T03:59:08.595Z,1025.50
2019-03-20T04:00:08.583Z,1025.53
2019-03-20T04:01:08.579Z,1025.50
2019-03-20T04:02:08.562Z,1025.53
2019-03-20T04:03:08.551Z,1025.50
2019-03-20T04:04:09.159Z,1025.49
2019-03-20T04:05:08.529Z,1025.49
2019-03-20T04:06:08.529Z,1025.53
2019-03-20T04:07:08.508Z,1025.48
2019-03-20T04:08:08.498Z,1025.53
2019-03-20T04:09:08.486Z,1025.52
2019-03-20T04:10:08.478Z,1025.51
2019-03-20T04:11:08.473Z,1025.50
2019-03-20T04:12:08.457Z,1025.56
2019-03-20T04:13:08.443Z,1025.56
2019-03-20T04:14:08.432Z,1025.60
2019-03-20T04:15:08.421Z,1025.63
2019-03-20T04:16:08.419Z,1025.65
2019-03-20T04:17:08.399Z,1025.64
2019-03-20T04:18:08.390Z,1025.63
2019-03-20T04:19:08.392Z,1025.67
2019-03-20T04:20:08.368Z,1025.69
2019-03-20T04:21:08.367Z,1025.73
2019-03-20T04:22:08.347Z,1025.71
2019-03-20T04:23:08.335Z,1025.77
2019-03-20T04:24:08.327Z,1025.75
2019-03-20T04:25:08.317Z,1025.73
2019-03-20T04:26:08.328Z,1025.71
2019-03-20T04:27:08.296Z,1025.69
2019-03-20T04:28:08.283Z,1025.70
2019-03-20T04:29:08.277Z,1025.70
2019-03-20T04:30:08.262Z,1025.65
2019-03-20T04:31:08.252Z,1025.67
2019-03-20T04:32:08.250Z,1025.68
2019-03-20T04:33:08.230Z,1025.71
2019-03-20T04:34:08.218Z,1025.71
2019-03-20T04:35:08.209Z,1025.70
2019-03-20T04:36:08.198Z,1025.72
2019-03-20T04:37:08.198Z,1025.75
2019-03-20T04:38:08.177Z,1025.74
2019-03-20T04:39:08.185Z,1025.76
2019-03-20T04:40:08.157Z,1025.73
2019-03-20T04:41:08.147Z,1025.73
2019-03-20T04:42:08.142Z,1025.75
2019-03-20T04:43:08.127Z,1025.77
2019-03-20T04:44:08.112Z,1025.75
2019-03-20T04:45:08.100Z,1025.73
2019-03-20T04:46:08.094Z,1025.73
2019-03-20T04:47:08.088Z,1025.78
2019-03-20T04:48:08.071Z,1025.77
2019-03-20T04:49:08.060Z,1025.78
2019-03-20T04:50:08.051Z,1025.81
2019-03-20T04:51:08.039Z,1025.78
2019-03-20T04:52:08.035Z,1025.80
2019-03-20T04:53:08.016Z,1025.74
2019-03-20T04:54:08.005Z,1025.78
2019-03-20T04:55:07.995Z,1025.74
2019-03-20T04:56:07.985Z,1025.73
2019-03-20T04:57:07.983Z,1025.77
2019-03-20T04:58:07.965Z,1025.76
2019-03-20T04:59:07.952Z,1025.79
2019-03-20T05:00:07.946Z,1025.80
2019-03-20T05:01:07.934Z,1025.81
2019-03-20T05:02:07.929Z,1025.79
2019-03-20T05:03:07.910Z,1025.86
2019-03-20T05:04:07.898Z,1025.81
2019-03-20T05:05:07.889Z,1025.78
2019-03-20T05:06:07.878Z,1025.80
2019-03-20T05:07:07.874Z,1025.87
2019-03-20T05:08:07.858Z,1025.82
2019-03-20T05:09:07.846Z,1025.83
2019-03-20T05:10:07.835Z,1025.89
2019-03-20T05:11:07.822Z,1025.95
2019-03-20T05:12:07.821Z,1025.91
2019-03-20T05:13:07.802Z,1025.97
2019-03-20T05:14:07.790Z,1025.98
2019-03-20T05:15:07.780Z,1025.95
2019-03-20T05:16:07.775Z,1025.91
2019-03-20T05:17:07.767Z,1025.95
2019-03-20T05:18:07.753Z,1025.91
2019-03-20T05:19:07.738Z,1025.90
2019-03-20T05:20:07.728Z,1025.84
2019-03-20T05:21:07.719Z,1025.93
2019-03-20T05:22:07.714Z,1025.91
2019-03-20T05:23:08.566Z,1025.94
2019-03-20T05:24:07.684Z,1025.95
2019-03-20T05:25:07.680Z,1025.94
2019-03-20T05:26:07.666Z,1025.94
2019-03-20T05:27:07.661Z,1026.01
2019-03-20T05:28:07.640Z,1026.04
2019-03-20T05:29:07.634Z,1026.06
2019-03-20T05:30:07.621Z,1026.00
2019-03-20T05:31:07.607Z,1026.06
2019-03-20T05:32:07.607Z,1026.01
2019-03-20T05:33:07.587Z,1026.05
2019-03-20T05:34:07.579Z,1026.03
2019-03-20T05:35:07.567Z,1026.07
2019-03-20T05:36:07.555Z,1026.04
2019-03-20T05:37:10.583Z,1026.09
2019-03-20T05:38:07.536Z,1026.12
2019-03-20T05:39:07.522Z,1026.11
2019-03-20T05:40:07.513Z,1026.13
2019-03-20T05:41:07.502Z,1026.15
2019-03-20T05:42:07.498Z,1026.12
2019-03-20T05:43:07.487Z,1026.18
2019-03-20T05:44:07.470Z,1026.17
2019-03-20T05:45:07.461Z,1026.17
2019-03-20T05:46:07.449Z,1026.16
2019-03-20T05:47:07.473Z,1026.20
2019-03-20T05:48:07.425Z,1026.16
2019-03-20T05:49:07.416Z,1026.23
2019-03-20T05:50:07.406Z,1026.20
2019-03-20T05:51:07.399Z,1026.26
2019-03-20T05:52:07.382Z,1026.22
2019-03-20T05:53:07.381Z,1026.26
2019-03-20T05:54:07.364Z,1026.24
2019-03-20T05:55:07.355Z,1026.20
2019-03-20T05:56:07.338Z,1026.29
2019-03-20T05:57:07.328Z,1026.33
2019-03-20T05:58:07.326Z,1026.24
2019-03-20T05:59:07.310Z,1026.26
2019-03-20T06:00:07.297Z,1026.27
2019-03-20T06:01:07.285Z,1026.32
2019-03-20T06:02:07.275Z,1026.26
2019-03-20T06:03:07.276Z,1026.27
2019-03-20T06:04:07.255Z,1026.26
2019-03-20T06:05:07.244Z,1026.29
2019-03-20T06:06:07.233Z,1026.27
2019-03-20T06:07:07.221Z,1026.24
2019-03-20T06:08:07.223Z,1026.30
2019-03-20T06:09:07.199Z,1026.27
2019-03-20T06:10:07.190Z,1026.23
2019-03-20T06:11:07.178Z,1026.19
2019-03-20T06:12:07.169Z,1026.27
2019-03-20T06:13:07.170Z,1026.24
2019-03-20T06:14:07.153Z,1026.31
2019-03-20T06:15:07.135Z,1026.31
2019-03-20T06:16:07.126Z,1026.30
2019-03-20T06:17:07.113Z,1026.36
2019-03-20T06:18:07.112Z,1026.30
2019-03-20T06:19:07.094Z,1026.36
2019-03-20T06:20:07.085Z,1026.38
2019-03-20T06:21:07.070Z,1026.37
2019-03-20T06:22:07.059Z,1026.43
2019-03-20T06:23:07.060Z,1026.40
2019-03-20T06:24:07.040Z,1026.35
2019-03-20T06:25:07.033Z,1026.34
2019-03-20T06:26:07.018Z,1026.33
2019-03-20T06:27:07.007Z,1026.36
2019-03-20T06:28:07.009Z,1026.45
2019-03-20T06:29:06.985Z,1026.53
2019-03-20T06:30:06.974Z,1026.50
2019-03-20T06:31:06.962Z,1026.54
2019-03-20T06:32:06.959Z,1026.55
2019-03-20T06:33:06.951Z,1026.50
2019-03-20T06:34:06.932Z,1026.46
2019-03-20T06:35:06.920Z,1026.56
2019-03-20T06:36:06.913Z,1026.63
2019-03-20T06:37:06.900Z,1026.64
2019-03-20T06:38:06.894Z,1026.61
2019-03-20T06:39:06.877Z,1026.60
2019-03-20T06:40:06.867Z,1026.65
2019-03-20T06:41:06.855Z,1026.63
2019-03-20T06:42:06.844Z,1026.66
2019-03-20T06:43:06.843Z,1026.65
2019-03-20T06:44:06.823Z,1026.74
2019-03-20T06:45:06.810Z,1026.73
2019-03-20T06:46:06.800Z,1026.74
2019-03-20T06:47:06.789Z,1026.79
2019-03-20T06:48:06.777Z,1026.77
2019-03-20T06:49:07.984Z,1026.77
2019-03-20T06:50:06.755Z,1026.72
2019-03-20T06:51:06.748Z,1026.78
2019-03-20T06:52:06.733Z,1026.74
2019-03-20T06:53:06.724Z,1026.79
2019-03-20T06:54:06.720Z,1026.78
2019-03-20T06:55:06.702Z,1026.85
2019-03-20T06:56:06.691Z,1026.82
2019-03-20T06:57:06.679Z,1026.83
2019-03-20T06:58:06.669Z,1026.85
2019-03-20T06:59:06.665Z,1026.87
2019-03-20T07:00:06.656Z,1026.89
2019-03-20T07:01:06.637Z,1026.90
2019-03-20T07:02:06.627Z,1026.90
2019-03-20T07:03:06.614Z,1026.93
2019-03-20T07:04:06.616Z,1026.92
2019-03-20T07:05:06.592Z,1026.96
2019-03-20T07:06:06.581Z,1026.98
2019-03-20T07:07:06.570Z,1026.94
2019-03-20T07:08:06.560Z,1026.97
2019-03-20T07:09:06.557Z,1026.93
2019-03-20T07:10:06.540Z,1026.96
2019-03-20T07:11:06.528Z,1026.89
2019-03-20T07:12:06.519Z,1026.87
2019-03-20T07:13:06.504Z,1026.90
2019-03-20T07:14:06.501Z,1026.90
2019-03-20T07:15:06.483Z,1026.90
2019-03-20T07:16:06.476Z,1026.95
2019-03-20T07:17:06.462Z,1026.92
2019-03-20T07:18:06.452Z,1026.95
2019-03-20T07:19:06.458Z,1026.95
2019-03-20T07:20:06.427Z,1027.00
2019-03-20T07:21:06.417Z,1026.98
2019-03-20T07:22:06.406Z,1026.92
2019-03-20T07:23:06.399Z,1026.89
2019-03-20T07:24:06.397Z,1026.98
2019-03-20T07:25:06.373Z,1026.98
2019-03-20T07:26:06.362Z,1026.93
2019-03-20T07:27:06.352Z,1026.88
2019-03-20T07:28:06.341Z,1026.86
2019-03-20T07:29:06.342Z,1026.90
2019-03-20T07:30:06.318Z,1026.85
2019-03-20T07:31:14.812Z,1026.85
2019-03-20T07:32:07.297Z,1026.85
2019-03-20T07:33:06.286Z,1026.83
2019-03-20T07:34:06.284Z,1026.91
2019-03-20T07:35:06.272Z,1026.95
2019-03-20T07:36:06.254Z,1026.93
2019-03-20T07:37:06.245Z,1026.99
2019-03-20T07:38:06.232Z,1026.95
2019-03-20T07:39:06.229Z,1026.95
2019-03-20T07:40:06.210Z,1026.96
2019-03-20T07:41:06.202Z,1026.93
2019-03-20T07:42:06.189Z,1026.91
2019-03-20T07:43:08.950Z,1026.89
2019-03-20T07:44:06.174Z,1026.83
2019-03-20T07:45:06.155Z,1026.85
2019-03-20T07:46:06.145Z,1026.87
2019-03-20T07:47:06.134Z,1026.88
2019-03-20T07:48:06.123Z,1026.93
2019-03-20T07:49:06.119Z,1026.97
2019-03-20T07:50:06.099Z,1026.88
2019-03-20T07:51:06.090Z,1026.95
2019-03-20T07:52:06.079Z,1026.94
2019-03-20T07:53:06.067Z,1026.95
2019-03-20T07:54:06.066Z,1026.97
2019-03-20T07:55:06.047Z,1026.94
2019-03-20T07:56:06.035Z,1026.99
2019-03-20T07:57:06.027Z,1026.98
2019-03-20T07:58:06.020Z,1027.00
2019-03-20T07:59:06.012Z,1026.98
2019-03-20T08:00:05.993Z,1027.04
2019-03-20T08:01:05.981Z,1027.04
2019-03-20T08:02:05.972Z,1027.02
2019-03-20T08:03:05.968Z,1027.04
2019-03-20T08:04:05.961Z,1027.08
2019-03-20T08:05:05.939Z,1027.09
2019-03-20T08:06:05.928Z,1027.07
2019-03-20T08:07:05.919Z,1027.03
2019-03-20T08:08:07.490Z,1027.07
2019-03-20T08:09:05.903Z,1027.04
2019-03-20T08:10:05.884Z,1027.12
2019-03-20T08:11:05.875Z,1027.06
2019-03-20T08:12:05.864Z,1027.05
2019-03-20T08:13:05.851Z,1027.08
2019-03-20T08:14:05.849Z,1027.08
2019-03-20T08:15:05.830Z,1027.15
2019-03-20T08:16:05.822Z,1027.14
2019-03-20T08:17:05.807Z,1027.15
2019-03-20T08:18:05.797Z,1027.15
2019-03-20T08:19:05.796Z,1027.11
2019-03-20T08:20:05.775Z,1027.11
2019-03-20T08:21:05.766Z,1027.13
2019-03-20T08:22:05.752Z,1027.16
2019-03-20T08:23:05.741Z,1027.20
2019-03-20T08:24:05.733Z,1027.12
2019-03-20T08:25:05.733Z,1027.14
2019-03-20T08:26:05.712Z,1027.17
2019-03-20T08:27:05.697Z,1027.17
2019-03-20T08:28:05.687Z,1027.15
2019-03-20T08:29:05.682Z,1027.16
2019-03-20T08:30:05.675Z,1027.24
2019-03-20T08:31:05.652Z,1027.19
2019-03-20T08:32:05.645Z,1027.20
2019-03-20T08:33:05.633Z,1027.17
2019-03-20T08:34:05.634Z,1027.19
2019-03-20T08:35:05.618Z,1027.17
2019-03-20T08:36:05.602Z,1027.15
2019-03-20T08:37:05.589Z,1027.09
2019-03-20T08:38:05.578Z,1027.19
2019-03-20T08:39:05.566Z,1027.17
2019-03-20T08:40:05.563Z,1027.21
2019-03-20T08:41:05.545Z,1027.24
2019-03-20T08:42:05.534Z,1027.22
2019-03-20T08:43:05.523Z,1027.20
2019-03-20T08:44:05.513Z,1027.19
2019-03-20T08:45:05.561Z,1027.19
2019-03-20T08:46:05.489Z,1027.16
2019-03-20T08:47:05.478Z,1027.15
2019-03-20T08:48:05.472Z,1027.18
2019-03-20T08:49:05.464Z,1027.19
2019-03-20T08:50:05.460Z,1027.17
2019-03-20T08:51:05.433Z,1027.14
2019-03-20T08:52:05.423Z,1027.13
2019-03-20T08:53:05.413Z,1027.14
2019-03-20T08:54:05.399Z,1027.15
2019-03-20T08:55:05.398Z,1027.12
2019-03-20T08:56:05.379Z,1027.09
2019-03-20T08:57:05.366Z,1027.09
2019-03-20T08:58:05.358Z,1027.14
2019-03-20T08:59:05.345Z,1027.13
2019-03-20T09:00:05.346Z,1027.14
2019-03-20T09:01:05.327Z,1027.10
2019-03-20T09:02:05.311Z,1027.14
2019-03-20T09:03:05.300Z,1027.12
2019-03-20T09:04:05.289Z,1027.16
2019-03-20T09:05:05.287Z,1027.24
2019-03-20T09:06:05.269Z,1027.27
2019-03-20T09:07:05.258Z,1027.27
2019-03-20T09:08:05.244Z,1027.31
2019-03-20T09:09:05.233Z,1027.31
2019-03-20T09:10:05.359Z,1027.26
2019-03-20T09:11:05.209Z,1027.24
2019-03-20T09:12:05.200Z,1027.28
2019-03-20T09:13:05.189Z,1027.32
2019-03-20T09:14:05.176Z,1027.33
2019-03-20T09:15:05.175Z,1027.36
2019-03-20T09:16:05.155Z,1027.36
2019-03-20T09:17:05.142Z,1027.39
2019-03-20T09:18:05.132Z,1027.40
2019-03-20T09:19:05.121Z,1027.38
2019-03-20T09:20:05.119Z,1027.41
2019-03-20T09:21:05.099Z,1027.38
2019-03-20T09:22:05.093Z,1027.38
2019-03-20T09:23:05.078Z,1027.39
2019-03-20T09:24:05.069Z,1027.38
2019-03-20T09:25:05.079Z,1027.40
2019-03-20T09:26:05.045Z,1027.37
2019-03-20T09:27:05.036Z,1027.41
2019-03-20T09:28:05.030Z,1027.45
2019-03-20T09:29:05.022Z,1027.44
2019-03-20T09:30:04.999Z,1027.46
2019-03-20T09:31:04.998Z,1027.52
2019-03-20T09:32:04.977Z,1027.50
2019-03-20T09:33:04.967Z,1027.51
2019-03-20T09:34:05.071Z,1027.51
2019-03-20T09:35:06.895Z,1027.56
2019-03-20T09:36:04.943Z,1027.57
2019-03-20T09:37:04.925Z,1027.62
2019-03-20T09:38:04.913Z,1027.53
2019-03-20T09:39:04.902Z,1027.52
2019-03-20T09:40:04.889Z,1027.47
2019-03-20T09:41:04.887Z,1027.46
2019-03-20T09:42:04.871Z,1027.40
2019-03-20T09:43:04.860Z,1027.39
2019-03-20T09:44:04.846Z,1027.42
2019-03-20T09:45:04.835Z,1027.41
2019-03-20T09:46:04.838Z,1027.41
2019-03-20T09:47:04.813Z,1027.40
2019-03-20T09:48:04.801Z,1027.39
2019-03-20T09:49:04.796Z,1027.46
2019-03-20T09:50:04.787Z,1027.45
2019-03-20T09:51:04.778Z,1027.44
2019-03-20T09:52:04.763Z,1027.42
2019-03-20T09:53:04.747Z,1027.39
2019-03-20T09:54:04.739Z,1027.39
2019-03-20T09:55:04.729Z,1027.40
2019-03-20T09:56:04.724Z,1027.36
2019-03-20T09:57:04.703Z,1027.34
2019-03-20T09:58:11.563Z,1027.36
2019-03-20T09:59:05.682Z,1027.34
2019-03-20T10:00:04.673Z,1027.35
2019-03-20T10:01:04.671Z,1027.34
2019-03-20T10:02:04.649Z,1027.29
2019-03-20T10:03:04.638Z,1027.32
2019-03-20T10:04:04.629Z,1027.31
2019-03-20T10:05:04.618Z,1027.35
2019-03-20T10:06:04.617Z,1027.31
2019-03-20T10:07:04.595Z,1027.32
2019-03-20T10:08:04.585Z,1027.31
2019-03-20T10:09:04.575Z,1027.28
2019-03-20T10:10:04.567Z,1027.28
2019-03-20T10:11:04.561Z,1027.23
2019-03-20T10:12:04.542Z,1027.21
2019-03-20T10:13:04.530Z,1027.23
2019-03-20T10:14:04.522Z,1027.21
2019-03-20T10:15:04.513Z,1027.20
2019-03-20T10:16:04.510Z,1027.16
2019-03-20T10:17:04.487Z,1027.14
2019-03-20T10:18:04.478Z,1027.17
2019-03-20T10:19:04.466Z,1027.15
2019-03-20T10:20:04.455Z,1027.13
2019-03-20T10:21:04.467Z,1027.11
2019-03-20T10:22:04.436Z,1027.16
2019-03-20T10:23:04.462Z,1027.14
2019-03-20T10:24:04.412Z,1027.11
2019-03-20T10:25:04.404Z,1027.11
2019-03-20T10:26:04.391Z,1027.09
2019-03-20T10:27:04.386Z,1027.08
2019-03-20T10:28:04.373Z,1027.04
2019-03-20T10:29:04.363Z,1027.00
2019-03-20T10:30:04.345Z,1026.99
2019-03-20T10:31:04.337Z,1026.96
2019-03-20T10:32:04.336Z,1026.97
2019-03-20T10:33:04.317Z,1026.94
2019-03-20T10:34:04.303Z,1027.01
2019-03-20T10:35:04.294Z,1026.95
2019-03-20T10:36:04.287Z,1026.86
2019-03-20T10:37:04.282Z,1026.99
2019-03-20T10:38:04.268Z,1026.94
2019-03-20T10:39:06.806Z,1026.98
2019-03-20T10:40:04.240Z,1026.98
2019-03-20T10:41:04.235Z,1026.97
2019-03-20T10:42:04.223Z,1027.04
2019-03-20T10:43:04.205Z,1027.06
2019-03-20T10:44:04.195Z,1027.11
2019-03-20T10:45:04.184Z,1027.08
2019-03-20T10:46:04.185Z,1027.12
2019-03-20T10:47:04.177Z,1027.11
2019-03-20T10:48:04.151Z,1027.14
2019-03-20T10:49:04.143Z,1027.14
2019-03-20T10:50:04.136Z,1027.14
2019-03-20T10:51:04.119Z,1027.20
2019-03-20T10:52:04.121Z,1027.19
2019-03-20T10:53:04.103Z,1027.21
2019-03-20T10:54:04.089Z,1027.20
2019-03-20T10:55:04.075Z,1027.03
2019-03-20T10:56:04.066Z,1027.11
2019-03-20T10:57:04.061Z,1027.16
2019-03-20T10:58:04.045Z,1027.15
2019-03-20T10:59:04.032Z,1027.13
2019-03-20T11:00:04.024Z,1027.10
2019-03-20T11:01:04.014Z,1027.12
2019-03-20T11:02:04.007Z,1027.12
2019-03-20T11:03:03.987Z,1027.10
2019-03-20T11:04:03.992Z,1027.13
2019-03-20T11:05:03.968Z,1027.08
2019-03-20T11:06:03.959Z,1027.10
2019-03-20T11:07:03.953Z,1027.08
2019-03-20T11:08:03.933Z,1027.10
2019-03-20T11:09:03.931Z,1027.11
2019-03-20T11:10:03.912Z,1027.06
2019-03-20T11:11:03.909Z,1027.04
2019-03-20T11:12:03.900Z,1027.09
2019-03-20T11:13:03.896Z,1027.06
2019-03-20T11:14:03.888Z,1027.03
2019-03-20T11:15:03.878Z,1027.01
2019-03-20T11:16:03.866Z,1027.03
2019-03-20T11:17:03.849Z,1027.05
2019-03-20T11:18:03.824Z,1027.02
2019-03-20T11:19:03.827Z,1026.96
2019-03-20T11:20:03.806Z,1027.01
2019-03-20T11:21:03.792Z,1027.01
2019-03-20T11:22:03.789Z,1027.02
2019-03-20T11:23:03.772Z,1027.01
2019-03-20T11:24:03.759Z,1026.99
2019-03-20T11:25:03.751Z,1026.92
2019-03-20T11:26:03.739Z,1026.96
2019-03-20T11:27:03.736Z,1026.95
2019-03-20T11:28:03.716Z,1026.92
2019-03-20T11:29:03.710Z,1026.96
2019-03-20T11:30:03.693Z,1026.95
2019-03-20T11:31:03.682Z,1026.97
2019-03-20T11:32:03.679Z,1027.01
2019-03-20T11:33:03.661Z,1026.96
2019-03-20T11:34:03.650Z,1027.00
2019-03-20T11:35:03.637Z,1027.00
2019-03-20T11:36:03.627Z,1026.97
2019-03-20T11:37:03.648Z,1027.00
2019-03-20T11:38:03.607Z,1026.91
2019-03-20T11:39:03.594Z,1026.92
2019-03-20T11:40:03.589Z,1026.89
2019-03-20T11:41:03.573Z,1026.95
2019-03-20T11:42:03.577Z,1026.94
2019-03-20T11:43:03.558Z,1026.88
2019-03-20T11:44:03.539Z,1026.93
2019-03-20T11:45:03.537Z,1026.89
2019-03-20T11:46:03.516Z,1026.87
2019-03-20T11:47:03.508Z,1026.89
2019-03-20T11:48:03.507Z,1026.87
2019-03-20T11:49:03.483Z,1026.82
2019-03-20T11:50:03.481Z,1026.84
2019-03-20T11:51:03.471Z,1026.80
2019-03-20T11:52:06.128Z,1026.85
2019-03-20T11:53:03.450Z,1026.83
2019-03-20T11:54:03.429Z,1026.85
2019-03-20T11:55:03.422Z,1026.83
2019-03-20T11:56:03.408Z,1026.92
2019-03-20T11:57:03.397Z,1026.80
2019-03-20T11:58:03.399Z,1026.81
2019-03-20T11:59:03.382Z,1026.83
2019-03-20T12:00:03.363Z,1026.83
2019-03-20T12:01:03.352Z,1026.85
2019-03-20T12:02:03.343Z,1026.84
2019-03-20T12:03:03.349Z,1026.84
2019-03-20T12:04:03.323Z,1026.88
2019-03-20T12:05:03.313Z,1026.84